Time;durP1;ratioP1;P1;durP2;ratioP2;P2;SDS_P1;SDS_P2;PMS_P1;PMS_P2;Temp;Humidity;BMP_temperature;BMP_pressure;BME280_temperature;BME280_humidity;BME280_pressure;Samples;Min_cycle;Max_cycle;Signal;HPM_P1;HPM_P2
2022/05/09 00:00:31;;;;;;;15.30;1.17;;;9.30;99.90;;;;;;5055004;28;20478;-73
2022/05/09 00:02:57;;;;;;;2.90;0.20;;;9.20;99.90;;;;;;5055218;28;20021;-75
2022/05/09 00:05:25;;;;;;;6.40;0.55;;;9.20;99.90;;;;;;5052842;28;20032;-75
2022/05/09 00:07:51;;;;;;;6.95;0.75;;;9.20;99.90;;;;;;5052802;28;20129;-75
2022/05/09 00:10:20;;;;;;;2.33;0.30;;;9.20;99.90;;;;;;5053214;28;20033;-74
2022/05/09 00:12:46;;;;;;;2.88;0.30;;;9.10;99.90;;;;;;5054035;28;20108;-74
2022/05/09 00:15:13;;;;;;;4.63;0.63;;;9.10;99.90;;;;;;5054602;28;20044;-74
2022/05/09 00:17:39;;;;;;;7.25;0.20;;;9.10;99.90;;;;;;5054110;28;20025;-75
2022/05/09 00:20:06;;;;;;;3.45;0.47;;;9.10;99.90;;;;;;5054052;28;20035;-75
2022/05/09 00:22:41;;;;;;;7.53;0.20;;;9.10;99.90;;;;;;5053786;28;20368;-75
2022/05/09 00:25:07;;;;;;;3.58;0.25;;;9.00;99.90;;;;;;5052624;28;20031;-75
2022/05/09 00:27:32;;;;;;;10.77;0.60;;;9.00;99.90;;;;;;5054443;28;20419;-75
2022/05/09 00:29:58;;;;;;;10.88;1.55;;;9.00;99.90;;;;;;5053913;28;20025;-75
2022/05/09 00:32:24;;;;;;;8.80;0.75;;;8.90;99.90;;;;;;5054489;28;20032;-74
2022/05/09 00:34:49;;;;;;;14.63;0.20;;;8.90;99.90;;;;;;5053851;28;20010;-75
2022/05/09 00:37:15;;;;;;;4.93;0.25;;;8.80;99.90;;;;;;5052585;28;20048;-75
2022/05/09 00:39:40;;;;;;;5.25;0.38;;;8.80;99.90;;;;;;5052744;28;20072;-75
2022/05/09 00:42:11;;;;;;;3.92;0.73;;;8.80;99.90;;;;;;5053787;28;20380;-75
2022/05/09 00:44:38;;;;;;;5.43;0.50;;;8.70;99.90;;;;;;5053585;28;20040;-75
2022/05/09 00:47:04;;;;;;;3.42;0.20;;;8.60;99.90;;;;;;5053531;28;20021;-75
2022/05/09 00:49:34;;;;;;;3.67;0.10;;;8.60;99.90;;;;;;5052809;28;20031;-76
2022/05/09 00:52:30;;;;;;;2.22;0.10;;;8.60;99.90;;;;;;5053714;28;20025;-76
2022/05/09 00:55:02;;;;;;;5.80;0.43;;;8.50;99.90;;;;;;5052757;28;20029;-75
2022/05/09 00:57:47;;;;;;;7.57;0.20;;;8.50;99.90;;;;;;5052306;28;20028;-75
2022/05/09 01:00:16;;;;;;;4.97;0.63;;;8.50;99.90;;;;;;5053631;28;20108;-75
2022/05/09 01:02:49;;;;;;;5.40;0.40;;;8.40;99.90;;;;;;5053283;28;20033;-76
2022/05/09 01:05:16;;;;;;;10.85;0.65;;;8.30;99.90;;;;;;5053395;28;20032;-75
2022/05/09 01:07:43;;;;;;;2.00;0.32;;;8.30;99.90;;;;;;5053691;28;20398;-75
2022/05/09 01:10:15;;;;;;;9.50;0.95;;;8.30;99.90;;;;;;5052175;28;20045;-75
2022/05/09 01:12:43;;;;;;;3.53;0.57;;;8.20;99.90;;;;;;5053516;28;20029;-75
2022/05/09 01:15:14;;;;;;;7.05;1.13;;;8.20;99.90;;;;;;5053504;28;20361;-77
2022/05/09 01:17:41;;;;;;;7.15;0.90;;;8.20;99.90;;;;;;5053542;28;20107;-76
2022/05/09 01:20:10;;;;;;;3.40;0.43;;;8.20;99.90;;;;;;5053906;28;20021;-76
2022/05/09 01:22:36;;;;;;;2.10;0.20;;;8.20;99.90;;;;;;5056383;28;20025;-76
2022/05/09 01:25:06;;;;;;;3.63;0.22;;;8.10;99.90;;;;;;5057393;28;20271;-76
2022/05/09 01:27:34;;;;;;;8.88;0.80;;;8.10;99.90;;;;;;5057497;28;20044;-76
2022/05/09 01:30:12;;;;;;;5.93;0.30;;;8.00;99.90;;;;;;5056212;28;20438;-76
2022/05/09 01:33:02;;;;;;;8.93;0.57;;;8.00;99.90;;;;;;5056333;28;20125;-76
2022/05/09 01:35:39;;;;;;;9.73;0.65;;;7.90;99.90;;;;;;5057788;28;20028;-76
2022/05/09 01:38:25;;;;;;;6.57;1.13;;;7.90;99.90;;;;;;5057515;28;20017;-76
2022/05/09 01:40:51;;;;;;;3.42;0.25;;;7.80;99.90;;;;;;5057833;28;20036;-76
2022/05/09 01:43:33;;;;;;;6.60;0.43;;;7.70;99.90;;;;;;5057273;28;20028;-76
2022/05/09 01:46:04;;;;;;;5.15;0.28;;;7.70;99.90;;;;;;5055970;28;20032;-76
2022/05/09 01:49:32;;;;;;;6.25;0.77;;;7.70;99.90;;;;;;5057064;28;20021;-76
2022/05/09 01:51:28;;;;;;;3.75;0.52;;;7.70;99.90;;;;;;5052116;28;20029;-76
2022/05/09 01:53:54;;;;;;;3.45;0.65;;;7.70;99.90;;;;;;5055900;28;20027;-76
2022/05/09 01:56:26;;;;;;;3.97;0.20;;;7.60;99.90;;;;;;5055761;28;20506;-76
2022/05/09 01:58:52;;;;;;;9.63;0.30;;;7.60;99.90;;;;;;5056077;28;20025;-76
2022/05/09 02:01:19;;;;;;;5.30;0.57;;;7.70;99.90;;;;;;5055937;28;20017;-75
2022/05/09 02:03:47;;;;;;;3.22;0.45;;;7.60;99.90;;;;;;5056154;28;20066;-76
2022/05/09 02:06:14;;;;;;;8.23;0.90;;;7.50;99.90;;;;;;5057031;28;20049;-75
2022/05/09 02:08:40;;;;;;;7.68;0.88;;;7.50;99.90;;;;;;5057479;28;20040;-75
2022/05/09 02:11:06;;;;;;;9.35;0.73;;;7.50;99.90;;;;;;5056210;28;20484;-75
2022/05/09 02:13:33;;;;;;;6.22;0.65;;;7.40;99.90;;;;;;5056621;28;20021;-76
2022/05/09 02:15:59;;;;;;;5.28;1.13;;;7.40;99.90;;;;;;5055460;28;20021;-74
2022/05/09 02:18:25;;;;;;;6.85;0.25;;;7.40;99.90;;;;;;5055432;28;20480;-74
2022/05/09 02:20:54;;;;;;;7.72;0.63;;;7.30;99.90;;;;;;5057164;28;20108;-74
2022/05/09 02:23:20;;;;;;;5.57;1.67;;;7.30;99.90;;;;;;5056901;28;20074;-76
2022/05/09 02:25:46;;;;;;;5.95;0.40;;;7.30;99.90;;;;;;5057661;28;20021;-76
2022/05/09 02:28:13;;;;;;;4.70;0.82;;;7.30;99.90;;;;;;5058234;28;20025;-76
2022/05/09 02:30:40;;;;;;;5.05;0.47;;;7.30;99.90;;;;;;5057587;28;20051;-76
2022/05/09 02:33:07;;;;;;;8.15;0.90;;;7.30;99.90;;;;;;5056122;28;20055;-76
2022/05/09 02:35:34;;;;;;;6.93;1.02;;;7.30;99.90;;;;;;5057514;28;20030;-76
2022/05/09 02:38:00;;;;;;;9.60;0.65;;;7.20;99.90;;;;;;5057566;28;20036;-76
2022/05/09 02:40:26;;;;;;;6.07;0.65;;;7.20;99.90;;;;;;5057245;28;20368;-76
2022/05/09 02:42:53;;;;;;;18.77;1.35;;;7.20;99.90;;;;;;5055930;28;20124;-76
2022/05/09 02:45:19;;;;;;;6.75;0.30;;;7.20;99.90;;;;;;5057022;28;20025;-76
2022/05/09 02:47:48;;;;;;;6.75;0.80;;;7.10;99.90;;;;;;5057092;28;20559;-75
2022/05/09 02:50:14;;;;;;;12.02;0.90;;;7.10;99.90;;;;;;5055943;28;20387;-75
2022/05/09 02:52:41;;;;;;;6.38;0.55;;;7.10;99.90;;;;;;5057726;28;20548;-75
2022/05/09 02:55:08;;;;;;;8.38;1.38;;;7.10;99.90;;;;;;5056610;28;20018;-76
2022/05/09 02:57:35;;;;;;;6.65;1.08;;;7.00;99.90;;;;;;5058222;28;20525;-76
2022/05/09 03:00:01;;;;;;;3.17;0.50;;;7.00;99.90;;;;;;5056589;28;20028;-76
2022/05/09 03:02:27;;;;;;;7.70;0.40;;;7.00;99.90;;;;;;5057730;28;20025;-77
2022/05/09 03:04:52;;;;;;;6.85;0.73;;;7.00;99.90;;;;;;5057537;28;20029;-75
2022/05/09 03:07:19;;;;;;;8.35;0.90;;;7.00;99.90;;;;;;5057656;28;20036;-75
2022/05/09 03:09:47;;;;;;;5.72;0.90;;;7.00;99.90;;;;;;5055612;28;20098;-75
2022/05/09 03:12:14;;;;;;;7.10;0.73;;;7.00;99.90;;;;;;5057133;28;20155;-74
2022/05/09 03:14:41;;;;;;;9.70;1.10;;;6.90;99.90;;;;;;5057114;28;20260;-74
2022/05/09 03:17:08;;;;;;;9.38;1.10;;;6.90;99.90;;;;;;5055276;28;20063;-74
2022/05/09 03:19:34;;;;;;;6.32;0.75;;;6.80;99.90;;;;;;5057354;28;20021;-74
2022/05/09 03:22:00;;;;;;;7.53;1.00;;;6.80;99.90;;;;;;5056980;28;20048;-74
2022/05/09 03:24:26;;;;;;;8.93;1.30;;;6.70;99.90;;;;;;5057472;28;20040;-74
2022/05/09 03:26:52;;;;;;;7.90;1.85;;;6.70;99.90;;;;;;5057017;28;20091;-74
2022/05/09 03:29:19;;;;;;;6.18;0.70;;;6.70;99.90;;;;;;5057383;28;20065;-74
2022/05/09 03:31:47;;;;;;;6.18;0.55;;;6.60;99.90;;;;;;5057141;28;20119;-75
2022/05/09 03:34:13;;;;;;;4.53;0.85;;;6.60;99.90;;;;;;5057475;28;20388;-75
2022/05/09 03:36:39;;;;;;;4.32;0.73;;;6.60;99.90;;;;;;5058175;28;20017;-75
2022/05/09 03:39:06;;;;;;;4.93;0.60;;;6.60;99.90;;;;;;5058279;28;20055;-75
2022/05/09 03:41:31;;;;;;;6.32;1.27;;;6.60;99.90;;;;;;5055982;28;20025;-74
2022/05/09 03:43:57;;;;;;;7.97;0.60;;;6.50;99.90;;;;;;5057370;28;20021;-74
2022/05/09 03:46:24;;;;;;;4.90;0.85;;;6.50;99.90;;;;;;5056900;28;20029;-74
2022/05/09 03:48:50;;;;;;;5.43;0.88;;;6.50;99.90;;;;;;5056861;28;20104;-75
2022/05/09 03:51:15;;;;;;;9.68;1.02;;;6.40;99.90;;;;;;5057711;28;20484;-74
2022/05/09 03:53:41;;;;;;;10.55;1.13;;;6.40;99.90;;;;;;5056728;28;20450;-74
2022/05/09 03:56:07;;;;;;;9.07;0.63;;;6.30;99.90;;;;;;5055708;28;20029;-75
2022/05/09 03:58:34;;;;;;;9.95;1.13;;;6.20;99.90;;;;;;5056816;28;20388;-74
2022/05/09 04:01:00;;;;;;;5.00;1.00;;;6.20;99.90;;;;;;5056667;28;20025;-74
2022/05/09 04:03:26;;;;;;;7.05;0.90;;;6.20;99.90;;;;;;5057245;28;20028;-75
2022/05/09 04:05:52;;;;;;;6.00;0.70;;;6.20;99.90;;;;;;5057035;28;20036;-74
2022/05/09 04:08:20;;;;;;;7.05;0.60;;;6.20;99.90;;;;;;5056843;28;20483;-74
2022/05/09 04:10:47;;;;;;;6.78;0.73;;;6.20;99.90;;;;;;5056923;28;20031;-75
2022/05/09 04:13:14;;;;;;;13.43;1.98;;;6.10;99.90;;;;;;5056810;28;20467;-75
2022/05/09 04:18:43;;;;;;;4.82;1.15;;;6.10;99.90;;;;;;5057528;28;20132;-74
2022/05/09 04:21:10;;;;;;;8.07;1.55;;;6.10;99.90;;;;;;5056855;28;20407;-75
2022/05/09 04:23:38;;;;;;;4.47;0.60;;;6.10;99.90;;;;;;5057005;28;20104;-75
2022/05/09 04:26:05;;;;;;;6.70;1.27;;;6.20;99.90;;;;;;5056508;28;20100;-75
2022/05/09 04:28:31;;;;;;;6.95;0.80;;;6.20;99.90;;;;;;5056811;28;20017;-75
2022/05/09 04:30:57;;;;;;;8.23;0.80;;;6.20;99.90;;;;;;5056205;28;20029;-75
2022/05/09 04:33:23;;;;;;;7.07;1.55;;;6.20;99.90;;;;;;5056060;28;20060;-75
2022/05/09 04:35:48;;;;;;;15.95;1.35;;;6.20;99.90;;;;;;5055675;28;20029;-75
2022/05/09 04:38:18;;;;;;;5.78;1.00;;;6.30;99.90;;;;;;5056347;28;20076;-75
2022/05/09 04:40:45;;;;;;;8.68;0.85;;;6.40;99.90;;;;;;5056824;28;20021;-75
2022/05/09 04:43:11;;;;;;;6.28;0.93;;;6.40;99.90;;;;;;5054966;28;20032;-75
2022/05/09 04:45:37;;;;;;;10.38;1.83;;;6.50;99.90;;;;;;5057272;28;20480;-75
2022/05/09 04:48:03;;;;;;;8.90;1.02;;;6.50;99.90;;;;;;5054434;28;20060;-75
2022/05/09 04:50:32;;;;;;;12.02;0.75;;;6.60;99.90;;;;;;5056468;28;20480;-75
2022/05/09 04:52:57;;;;;;;6.47;0.85;;;6.70;99.90;;;;;;5056325;28;20494;-75
2022/05/09 04:55:24;;;;;;;12.38;1.27;;;6.80;99.90;;;;;;5055797;28;20017;-75
2022/05/09 04:57:50;;;;;;;4.80;0.95;;;6.80;99.90;;;;;;5054114;28;20372;-75
2022/05/09 05:00:20;;;;;;;10.68;1.27;;;6.90;99.90;;;;;;5054578;28;20049;-75
2022/05/09 05:02:46;;;;;;;8.30;1.35;;;7.00;99.90;;;;;;5055334;28;20025;-74
2022/05/09 05:05:12;;;;;;;9.23;1.25;;;7.10;99.90;;;;;;5055798;28;20021;-75
2022/05/09 05:07:37;;;;;;;7.05;1.02;;;7.10;99.90;;;;;;5053881;28;20032;-75
2022/05/09 05:10:04;;;;;;;6.97;1.23;;;7.30;99.90;;;;;;5055970;28;20063;-75
2022/05/09 05:12:30;;;;;;;9.00;0.65;;;7.40;99.90;;;;;;5054005;28;20024;-75
2022/05/09 05:14:55;;;;;;;5.50;0.85;;;7.50;99.90;;;;;;5054005;28;20017;-75
2022/05/09 05:17:21;;;;;;;8.10;1.13;;;7.70;99.90;;;;;;5053394;28;20017;-75
2022/05/09 05:19:48;;;;;;;8.82;1.25;;;7.80;99.90;;;;;;5053419;28;20467;-75
2022/05/09 05:22:15;;;;;;;5.75;1.35;;;8.00;99.90;;;;;;5055401;28;20072;-76
2022/05/09 05:24:44;;;;;;;7.18;0.77;;;8.20;99.90;;;;;;5054536;28;20021;-75
2022/05/09 05:27:11;;;;;;;;;;;8.50;99.90;;;;;;5054459;28;20027;-74
2022/05/09 05:29:37;;;;;;;4.68;0.63;;;8.90;99.90;;;;;;5052710;28;20275;-74
2022/05/09 05:32:16;;;;;;;9.32;0.93;;;9.20;99.90;;;;;;5054361;28;20033;-75
2022/05/09 05:34:42;;;;;;;4.70;1.17;;;9.60;99.90;;;;;;5052795;28;20090;-75
2022/05/09 05:37:08;;;;;;;5.18;0.77;;;9.40;99.90;;;;;;5053875;28;20025;-75
2022/05/09 05:39:36;;;;;;;8.48;1.25;;;9.40;99.90;;;;;;5053543;28;20044;-75
2022/05/09 05:42:03;;;;;;;8.32;0.85;;;9.80;99.90;;;;;;5053745;28;20048;-75
2022/05/09 05:44:29;;;;;;;4.07;0.65;;;9.90;99.90;;;;;;5052828;28;20029;-75
2022/05/09 05:46:55;;;;;;;5.65;0.50;;;10.00;99.90;;;;;;5053242;28;20044;-75
2022/05/09 05:49:23;;;;;;;9.85;1.80;;;9.90;99.90;;;;;;5053799;28;20029;-76
2022/05/09 05:51:49;;;;;;;7.13;0.52;;;10.20;99.90;;;;;;5054587;28;20029;-75
2022/05/09 05:54:14;;;;;;;7.88;0.68;;;10.20;99.90;;;;;;5053455;28;20506;-75
2022/05/09 05:56:40;;;;;;;6.15;0.55;;;10.20;99.90;;;;;;5053586;28;20047;-74
2022/05/09 05:59:05;;;;;;;5.05;0.93;;;10.30;99.90;;;;;;5053239;28;20447;-73
2022/05/09 06:01:33;;;;;;;9.30;1.17;;;10.30;99.90;;;;;;5052561;28;20115;-73
2022/05/09 06:04:00;;;;;;;5.60;0.90;;;10.40;99.90;;;;;;5053750;28;20021;-74
2022/05/09 06:06:26;;;;;;;8.38;0.98;;;10.50;99.90;;;;;;5053150;28;20048;-74
2022/05/09 06:08:51;;;;;;;10.25;1.17;;;10.50;99.90;;;;;;5054951;28;20044;-73
2022/05/09 06:11:17;;;;;;;16.30;1.58;;;10.50;99.90;;;;;;5056551;28;20067;-73
2022/05/09 06:13:42;;;;;;;4.22;0.47;;;10.60;99.90;;;;;;5056626;28;20021;-74
2022/05/09 06:16:08;;;;;;;8.05;0.80;;;10.70;99.90;;;;;;5056614;28;20028;-73
2022/05/09 06:18:34;;;;;;;4.97;0.47;;;10.80;99.90;;;;;;5056706;28;20025;-73
2022/05/09 06:21:00;;;;;;;6.85;1.13;;;10.80;99.90;;;;;;5056680;28;20032;-73
2022/05/09 06:23:25;;;;;;;9.30;0.80;;;11.10;99.90;;;;;;5057015;28;20024;-73
2022/05/09 06:25:51;;;;;;;7.97;0.68;;;11.20;99.90;;;;;;5056494;28;20388;-73
2022/05/09 06:28:22;;;;;;;6.03;0.60;;;11.30;99.90;;;;;;5054863;28;20032;-73
2022/05/09 06:30:47;;;;;;;7.18;1.13;;;11.50;99.90;;;;;;5054742;28;20028;-74
2022/05/09 06:33:20;;;;;;;4.55;0.47;;;11.60;99.90;;;;;;5056471;28;20471;-73
2022/05/09 06:35:45;;;;;;;5.78;0.88;;;11.70;99.90;;;;;;5056870;28;20468;-73
2022/05/09 06:38:17;;;;;;;5.93;0.60;;;11.90;99.90;;;;;;5055739;28;20079;-74
2022/05/09 06:40:43;;;;;;;7.07;0.65;;;12.10;99.90;;;;;;5055875;28;20021;-74
2022/05/09 06:43:09;;;;;;;5.88;0.30;;;12.20;99.90;;;;;;5055572;28;20047;-74
2022/05/09 06:45:36;;;;;;;5.97;0.20;;;12.30;99.90;;;;;;5054323;28;20071;-74
2022/05/09 06:48:02;;;;;;;7.38;1.00;;;12.50;99.90;;;;;;5055639;28;20033;-73
2022/05/09 06:50:30;;;;;;;7.15;0.88;;;12.70;99.90;;;;;;5055688;28;20079;-73
2022/05/09 06:52:57;;;;;;;3.33;0.55;;;12.80;99.90;;;;;;5055834;28;20394;-73
2022/05/09 06:55:22;;;;;;;5.72;0.50;;;13.00;99.90;;;;;;5055706;28;20017;-73
2022/05/09 06:57:49;;;;;;;9.18;0.82;;;13.20;99.90;;;;;;5054173;28;20480;-73
2022/05/09 07:00:18;;;;;;;6.97;0.30;;;13.30;99.90;;;;;;5055805;28;20024;-73
2022/05/09 07:02:44;;;;;;;6.32;0.63;;;13.50;99.90;;;;;;5055154;28;20436;-75
2022/05/09 07:05:11;;;;;;;10.48;0.85;;;13.60;99.90;;;;;;5055550;28;20028;-75
2022/05/09 07:07:37;;;;;;;10.70;0.77;;;13.70;99.90;;;;;;5054206;28;20048;-76
2022/05/09 07:10:04;;;;;;;9.30;0.88;;;13.90;99.90;;;;;;5054023;28;20017;-76
2022/05/09 07:12:30;;;;;;;4.97;0.32;;;14.00;99.90;;;;;;5055547;28;20036;-76
2022/05/09 07:14:55;;;;;;;6.13;1.30;;;14.10;98.50;;;;;;5055721;28;20017;-76
2022/05/09 07:17:21;;;;;;;5.07;0.50;;;14.20;98.60;;;;;;5056291;28;20083;-77
2022/05/09 07:19:47;;;;;;;5.60;0.57;;;14.40;97.30;;;;;;5053304;28;20025;-75
2022/05/09 07:22:13;;;;;;;4.07;0.20;;;14.50;96.60;;;;;;5053452;28;20024;-75
2022/05/09 07:24:40;;;;;;;4.82;0.55;;;14.60;95.70;;;;;;5053590;28;20029;-75
2022/05/09 07:27:07;;;;;;;5.30;0.52;;;14.70;94.40;;;;;;5053510;28;20078;-75
2022/05/09 07:29:33;;;;;;;4.55;0.30;;;14.80;94.80;;;;;;5053378;28;20108;-75
2022/05/09 07:31:59;;;;;;;8.38;0.90;;;15.00;94.30;;;;;;5054421;23;20072;-75
2022/05/09 07:34:24;;;;;;;7.32;0.60;;;15.10;92.30;;;;;;5033582;28;20025;-75
2022/05/09 07:36:50;;;;;;;5.20;1.08;;;15.20;92.70;;;;;;5033525;28;20472;-75
2022/05/09 07:39:16;;;;;;;4.68;1.10;;;16.40;92.50;;;;;;5034818;28;20021;-75
2022/05/09 07:41:42;;;;;;;8.70;0.35;;;15.40;91.10;;;;;;5035101;28;20065;-75
2022/05/09 07:44:08;;;;;;;6.63;0.70;;;15.50;90.60;;;;;;5034559;28;20025;-75
2022/05/09 07:46:34;;;;;;;7.10;0.30;;;15.60;91.40;;;;;;5034689;28;20033;-75
2022/05/09 07:48:59;;;;;;;5.80;0.95;;;15.70;88.60;;;;;;5034630;28;20111;-75
2022/05/09 07:51:25;;;;;;;1.65;0.28;;;15.80;86.40;;;;;;5034662;28;20025;-75
2022/05/09 07:53:51;;;;;;;6.82;0.50;;;15.90;86.90;;;;;;5034826;28;20035;-75
2022/05/09 07:56:17;;;;;;;8.70;1.50;;;16.00;84.50;;;;;;5035086;28;20357;-75
2022/05/09 07:58:43;;;;;;;8.57;0.63;;;16.10;82.60;;;;;;5034323;28;20033;-75
2022/05/09 08:01:08;;;;;;;4.85;0.52;;;16.30;82.20;;;;;;5034299;28;20033;-75
2022/05/09 08:03:37;;;;;;;6.38;0.55;;;16.40;80.70;;;;;;5032900;28;20021;-75
2022/05/09 08:06:03;;;;;;;4.53;0.77;;;16.50;78.40;;;;;;5034446;28;20033;-75
2022/05/09 08:08:30;;;;;;;3.92;0.50;;;16.60;78.10;;;;;;5032847;28;20035;-75
2022/05/09 08:11:00;;;;;;;2.53;0.22;;;16.70;75.30;;;;;;5033996;28;20096;-75
2022/05/09 08:13:30;;;;;;;3.35;0.68;;;16.80;73.80;;;;;;5033943;28;20051;-75
2022/05/09 08:15:56;;;;;;;4.72;0.93;;;16.80;75.20;;;;;;5033950;28;20028;-75
2022/05/09 08:18:24;;;;;;;7.45;0.20;;;16.50;76.50;;;;;;5032823;28;20022;-75
2022/05/09 08:20:50;;;;;;;5.32;0.32;;;17.10;74.80;;;;;;5034494;28;20033;-75
2022/05/09 08:23:18;;;;;;;5.80;0.88;;;17.30;75.70;;;;;;5033770;28;20097;-75
2022/05/09 08:25:48;;;;;;;2.55;0.20;;;17.50;71.20;;;;;;5033763;28;20033;-75
2022/05/09 08:28:15;;;;;;;2.80;0.20;;;17.60;68.80;;;;;;5033988;28;20017;-75
2022/05/09 08:30:41;;;;;;;8.32;1.65;;;17.70;67.00;;;;;;5033553;28;20021;-75
2022/05/09 08:33:12;;;;;;;2.20;0.10;;;17.80;66.30;;;;;;5033396;28;20033;-75
2022/05/09 08:35:38;;;;;;;26.38;0.70;;;17.90;64.90;;;;;;5032724;28;20044;-76
2022/05/09 08:38:03;;;;;;;3.70;0.47;;;18.00;64.60;;;;;;5033261;28;20446;-75
2022/05/09 08:40:36;;;;;;;8.20;0.95;;;18.10;64.90;;;;;;5035046;28;20392;-78
2022/05/09 08:43:45;;;;;;;8.02;0.50;;;18.30;64.30;;;;;;5034572;28;20065;-77
2022/05/09 08:46:38;;;;;;;5.18;0.63;;;18.40;64.00;;;;;;5025121;28;20121;-77
2022/05/09 08:49:25;;;;;;;3.03;0.20;;;18.70;64.30;;;;;;5033868;28;20037;-77
2022/05/09 08:52:04;;;;;;;5.47;0.68;;;18.90;60.20;;;;;;5032301;28;20492;-77
2022/05/09 08:54:30;;;;;;;7.72;0.32;;;18.90;59.10;;;;;;5033686;28;20175;-77
2022/05/09 08:57:00;;;;;;;4.53;0.20;;;18.90;60.80;;;;;;5033552;28;20507;-77
2022/05/09 08:59:35;;;;;;;4.20;0.65;;;18.90;57.90;;;;;;5033684;28;20029;-77
2022/05/09 09:02:18;;;;;;;5.28;0.63;;;18.90;59.80;;;;;;5032674;28;20059;-77
2022/05/09 09:04:52;;;;;;;4.50;0.20;;;18.90;56.10;;;;;;5032528;28;20026;-77
2022/05/09 09:07:54;;;;;;;1.00;0.10;;;19.00;54.70;;;;;;5032208;28;20393;-77
2022/05/09 09:10:39;;;;;;;1.48;0.20;;;19.00;52.90;;;;;;5017308;28;20046;-77
2022/05/09 09:13:22;;;;;;;0.65;0.10;;;19.00;53.30;;;;;;5032355;28;20064;-77
2022/05/09 09:15:54;;;;;;;3.55;0.40;;;19.10;54.10;;;;;;5032845;28;20372;-77
2022/05/09 09:18:32;;;;;;;4.72;0.30;;;19.40;54.30;;;;;;5033722;28;20091;-77
2022/05/09 09:21:09;;;;;;;3.50;0.38;;;19.60;52.30;;;;;;5033838;28;20017;-77
2022/05/09 09:23:52;;;;;;;4.43;0.38;;;19.40;51.30;;;;;;5032387;28;20097;-77
2022/05/09 09:26:46;;;;;;;1.33;0.25;;;19.20;51.30;;;;;;5032464;28;20030;-77
2022/05/09 09:29:45;;;;;;;1.25;0.13;;;19.20;52.40;;;;;;5033631;28;20025;-77
2022/05/09 09:32:13;;;;;;;5.35;0.20;;;19.30;53.00;;;;;;5032056;28;20441;-77
2022/05/09 09:34:45;;;;;;;7.57;0.63;;;19.40;52.60;;;;;;5033997;28;20116;-77
2022/05/09 09:37:17;;;;;;;0.52;0.00;;;19.60;52.70;;;;;;5033933;28;20419;-77
2022/05/09 09:39:42;;;;;;;5.28;0.10;;;19.80;52.10;;;;;;5033872;28;20033;-77
2022/05/09 09:42:08;;;;;;;3.55;0.32;;;20.00;52.70;;;;;;5034413;28;20438;-77
2022/05/09 09:44:38;;;;;;;3.30;0.20;;;20.30;52.20;;;;;;5037961;28;20025;-77
2022/05/09 09:47:18;;;;;;;6.22;0.40;;;20.40;52.60;;;;;;5038100;28;20017;-78
2022/05/09 09:49:45;;;;;;;5.30;0.47;;;20.60;52.60;;;;;;5036539;28;20030;-77
2022/05/09 09:52:28;;;;;;;5.53;0.47;;;20.70;51.40;;;;;;5036353;28;20022;-78
2022/05/09 09:55:06;;;;;;;5.15;0.55;;;20.80;52.20;;;;;;5037524;28;20031;-78
2022/05/09 09:57:38;;;;;;;1.67;0.10;;;20.80;49.40;;;;;;5037572;28;20021;-78
2022/05/09 10:00:20;;;;;;;2.83;0.40;;;20.80;51.40;;;;;;5036852;28;20022;-78
2022/05/09 10:02:48;;;;;;;2.53;0.13;;;21.00;51.30;;;;;;5037853;28;20025;-77
2022/05/09 10:05:17;;;;;;;4.95;0.17;;;21.10;50.10;;;;;;5036743;28;20099;-77
2022/05/09 10:07:44;;;;;;;2.90;0.28;;;21.20;51.80;;;;;;5037891;28;20029;-77
2022/05/09 10:10:26;;;;;;;5.35;0.20;;;21.50;49.50;;;;;;5037792;28;20029;-77
2022/05/09 10:12:55;;;;;;;1.98;0.20;;;21.50;49.70;;;;;;5036705;28;20217;-78
2022/05/09 10:15:23;;;;;;;1.83;0.45;;;21.40;48.70;;;;;;5036488;28;20017;-77
2022/05/09 10:17:49;;;;;;;5.05;0.40;;;21.20;49.50;;;;;;5038098;28;20047;-77
2022/05/09 10:20:34;;;;;;;2.22;0.40;;;21.30;52.00;;;;;;5037470;28;20025;-76
2022/05/09 10:26:19;;;;;;;2.75;0.10;;;21.60;46.90;;;;;;5038006;28;20071;-76
2022/05/09 10:28:53;;;;;;;7.32;0.50;;;21.40;47.80;;;;;;5037827;28;20120;-76
2022/05/09 10:31:27;;;;;;;2.65;0.15;;;21.60;48.50;;;;;;5036219;28;20033;-76
2022/05/09 10:34:04;;;;;;;5.85;0.00;;;21.60;48.30;;;;;;5037454;28;20091;-76
2022/05/09 10:36:47;;;;;;;1.30;0.20;;;21.80;47.70;;;;;;5036152;28;20017;-76
2022/05/09 10:39:31;;;;;;;3.53;0.68;;;21.90;46.30;;;;;;5035935;28;20029;-76
2022/05/09 10:42:07;;;;;;;3.28;0.45;;;21.80;46.80;;;;;;5035628;28;20132;-76
2022/05/09 10:44:46;;;;;;;1.63;0.10;;;21.50;46.10;;;;;;5037388;28;20030;-76
2022/05/09 10:47:33;;;;;;;2.35;0.50;;;21.20;47.70;;;;;;5037075;28;20020;-76
2022/05/09 10:50:21;;;;;;;2.38;0.43;;;21.40;47.10;;;;;;5036393;28;20033;-76
2022/05/09 10:53:15;;;;;;;7.78;0.80;;;21.50;46.10;;;;;;5035860;28;20018;-76
2022/05/09 10:55:53;;;;;;;4.22;0.35;;;21.80;48.60;;;;;;5035828;28;20028;-76
2022/05/09 10:58:35;;;;;;;3.22;0.20;;;22.10;49.00;;;;;;5036493;28;20120;-76
2022/05/09 11:01:29;;;;;;;2.08;0.17;;;22.30;45.80;;;;;;5036223;28;20036;-76
2022/05/09 11:03:56;;;;;;;2.25;0.17;;;22.40;45.90;;;;;;5027308;28;20184;-76
2022/05/09 11:06:24;;;;;;;2.55;0.10;;;22.60;45.10;;;;;;5035742;28;20018;-77
2022/05/09 11:09:00;;;;;;;1.73;0.13;;;22.90;45.20;;;;;;5035383;28;20035;-75
2022/05/09 11:11:49;;;;;;;1.55;0.00;;;23.10;43.00;;;;;;5035419;28;20018;-75
2022/05/09 11:14:21;;;;;;;3.63;0.28;;;23.00;43.80;;;;;;5033873;28;20022;-75
2022/05/09 11:17:18;;;;;;;2.53;0.40;;;23.10;43.50;;;;;;5034245;28;20028;-75
2022/05/09 11:20:22;;;;;;;3.47;0.60;;;23.00;43.30;;;;;;5033844;28;20033;-76
2022/05/09 11:23:09;;;;;;;1.02;0.03;;;23.10;44.70;;;;;;5034867;28;20057;-76
2022/05/09 11:25:52;;;;;;;4.03;0.15;;;23.60;42.90;;;;;;5036097;28;20025;-76
2022/05/09 11:28:44;;;;;;;2.05;0.10;;;23.80;41.70;;;;;;5034117;28;20029;-76
2022/05/09 11:31:41;;;;;;;2.72;0.13;;;24.00;41.20;;;;;;5028518;28;20041;-76
2022/05/09 11:34:41;;;;;;;3.08;0.10;;;24.10;43.60;;;;;;5035333;28;20025;-76
2022/05/09 11:37:35;;;;;;;4.38;0.10;;;24.40;43.80;;;;;;5035035;28;20039;-76
2022/05/09 11:40:27;;;;;;;3.65;0.68;;;24.90;43.60;;;;;;5034960;28;20017;-75
2022/05/09 11:43:32;;;;;;;1.83;0.10;;;25.30;43.00;;;;;;5034384;28;20025;-76
2022/05/09 11:46:13;;;;;;;3.35;0.10;;;25.40;41.30;;;;;;5033459;28;20033;-76
2022/05/09 11:49:13;;;;;;;3.22;0.40;;;25.60;41.60;;;;;;5034689;28;20026;-75
2022/05/09 11:51:51;;;;;;;3.45;0.17;;;25.50;40.60;;;;;;5034813;28;20032;-76
2022/05/09 11:54:34;;;;;;;5.75;0.40;;;25.60;41.10;;;;;;5034362;28;20026;-76
2022/05/09 11:57:13;;;;;;;3.58;0.73;;;25.80;40.70;;;;;;5034438;28;20495;-76
2022/05/09 11:59:54;;;;;;;2.55;0.10;;;25.70;39.70;;;;;;5036229;28;20119;-76
2022/05/09 12:02:43;;;;;;;3.00;0.20;;;25.70;40.60;;;;;;5044399;28;20029;-76
2022/05/09 12:05:32;;;;;;;1.98;0.25;;;26.10;39.50;;;;;;5040469;28;20092;-76
2022/05/09 12:08:21;;;;;;;3.05;0.38;;;26.40;40.10;;;;;;5014275;28;20037;-76
2022/05/09 12:10:50;;;;;;;4.38;0.52;;;26.50;38.50;;;;;;5053938;28;20029;-76
2022/05/09 12:13:25;;;;;;;3.08;0.00;;;26.40;38.40;;;;;;5053693;28;20468;-75
2022/05/09 12:15:58;;;;;;;1.55;0.10;;;26.60;40.00;;;;;;5053625;28;20025;-76
2022/05/09 12:18:29;;;;;;;4.43;0.40;;;26.90;39.20;;;;;;5053873;28;20021;-76
2022/05/09 12:20:55;;;;;;;2.20;0.20;;;27.00;39.30;;;;;;5053721;28;20100;-76
2022/05/09 12:23:41;;;;;;;4.10;0.10;;;27.30;39.90;;;;;;5069138;28;20458;-76
2022/05/09 12:26:09;;;;;;;1.95;0.30;;;27.60;39.60;;;;;;5068981;28;20419;-76
2022/05/09 12:28:36;;;;;;;;;;;27.80;38.20;;;;;;5054513;28;20100;-76
2022/05/09 12:31:06;;;;;;;3.63;0.57;;;28.00;39.10;;;;;;5034022;28;20356;-76
2022/05/09 12:33:52;;;;;;;2.60;0.40;;;28.20;36.90;;;;;;5034734;28;20045;-76
2022/05/09 12:36:33;;;;;;;1.20;0.13;;;27.80;37.20;;;;;;5034400;28;20034;-76
2022/05/09 12:39:07;;;;;;;2.35;0.30;;;27.60;36.30;;;;;;5028524;28;20036;-75
2022/05/09 12:41:46;;;;;;;3.08;0.20;;;27.40;37.50;;;;;;5034480;28;20080;-75
2022/05/09 12:44:30;;;;;;;3.13;0.45;;;27.50;37.60;;;;;;5030451;28;20125;-75
2022/05/09 12:47:06;;;;;;;1.90;0.10;;;27.60;37.80;;;;;;5028072;28;20017;-75
2022/05/09 12:50:03;;;;;;;2.03;0.22;;;28.00;38.40;;;;;;5032566;28;20405;-76
2022/05/09 12:52:32;;;;;;;2.45;0.13;;;28.20;37.20;;;;;;5033022;28;20025;-75
2022/05/09 12:57:44;;;;;;;2.17;0.50;;;28.00;36.30;;;;;;5035597;28;20033;-75
2022/05/09 13:00:12;;;;;;;3.80;0.38;;;27.50;36.60;;;;;;5033202;28;20056;-75
2022/05/09 13:02:39;;;;;;;1.90;0.30;;;27.00;36.30;;;;;;5034728;28;20029;-76
2022/05/09 13:05:08;;;;;;;4.28;0.50;;;26.90;37.30;;;;;;5035495;28;20028;-76
2022/05/09 13:07:51;;;;;;;5.05;0.10;;;27.20;38.60;;;;;;5033818;28;20033;-75
2022/05/09 13:10:17;;;;;;;5.43;0.90;;;26.90;37.80;;;;;;5033212;28;20021;-75
2022/05/09 13:12:43;;;;;;;4.75;0.32;;;27.10;38.10;;;;;;5034662;28;20096;-76
2022/05/09 13:15:17;;;;;;;3.78;0.22;;;27.30;38.20;;;;;;5034916;28;20025;-76
2022/05/09 13:17:49;;;;;;;2.42;0.55;;;27.40;37.20;;;;;;5036743;28;20029;-75
2022/05/09 13:20:20;;;;;;;4.50;0.08;;;27.40;39.20;;;;;;5039327;28;20373;-75